Time;durP1;ratioP1;P1;durP2;ratioP2;P2;SDS_P1;SDS_P2;PMS_P1;PMS_P2;Temp;Humidity;BMP_temperature;BMP_pressure;BME280_temperature;BME280_humidity;BME280_pressure;Samples;Min_cycle;Max_cycle;Signal;HPM_P1;HPM_P2
2023/10/16 00:01:19;;;;;;;7.13;1.92;;;;;;;-148.88;100.00;-17125.47;5012906;28;20033;-83
2023/10/16 00:03:44;;;;;;;5.43;2.20;;;;;;;-148.88;100.00;-17125.47;5012571;28;20018;-83
2023/10/16 00:06:11;;;;;;;5.15;1.73;;;;;;;-148.88;100.00;-17125.47;5014201;28;20022;-83
2023/10/16 00:09:41;;;;;;;9.30;1.95;;;;;;;-148.88;100.00;-17125.47;5013876;28;20494;-84
2023/10/16 00:12:02;;;;;;;6.07;2.28;;;;;;;-148.88;100.00;-17125.47;5001190;28;20374;-84
2023/10/16 00:14:30;;;;;;;7.95;2.10;;;;;;;-148.88;100.00;-17125.47;5012901;28;20033;-83
2023/10/16 00:16:56;;;;;;;3.80;2.13;;;;;;;-148.88;100.00;-17125.47;5012799;28;20105;-83
2023/10/16 00:19:25;;;;;;;3.90;1.70;;;;;;;-148.88;100.00;-17125.47;5013888;28;20088;-83
2023/10/16 00:21:52;;;;;;;4.60;1.95;;;;;;;-148.88;100.00;-17125.47;5012495;28;20025;-83
2023/10/16 00:24:18;;;;;;;9.43;1.88;;;;;;;-148.88;100.00;-17125.47;5013263;28;20029;-83
2023/10/16 00:26:50;;;;;;;3.80;1.95;;;;;;;-148.88;100.00;-17125.47;5014497;28;20098;-83
2023/10/16 00:29:24;;;;;;;8.73;2.63;;;;;;;-148.88;100.00;-17125.47;5015495;28;20393;-83
2023/10/16 00:31:58;;;;;;;6.70;1.88;;;;;;;-148.88;100.00;-17125.47;5015325;28;20037;-83
2023/10/16 00:34:24;;;;;;;8.07;2.35;;;;;;;-148.88;100.00;-17125.47;5012618;28;20116;-83
2023/10/16 00:36:53;;;;;;;4.38;2.20;;;;;;;-148.88;100.00;-17125.47;5013529;28;20046;-83
2023/10/16 00:39:20;;;;;;;3.58;1.80;;;;;;;-148.88;100.00;-17125.47;5014725;28;20441;-83
2023/10/16 00:41:46;;;;;;;3.78;1.80;;;;;;;-148.88;100.00;-17125.47;5016537;28;20125;-84
2023/10/16 00:44:16;;;;;;;8.68;2.28;;;;;;;-148.88;100.00;-17125.47;5017575;28;20022;-83
2023/10/16 00:46:45;;;;;;;7.47;2.38;;;;;;;-148.88;100.00;-17125.47;5016718;28;20022;-83
2023/10/16 00:49:13;;;;;;;6.57;2.45;;;;;;;-148.88;100.00;-17125.47;5016354;28;20398;-83
2023/10/16 00:51:40;;;;;;;5.15;2.20;;;;;;;-148.88;100.00;-17125.47;5017024;28;20105;-84
2023/10/16 00:54:18;;;;;;;4.70;2.28;;;;;;;-148.88;100.00;-17125.47;5016939;28;20029;-83
2023/10/16 00:56:45;;;;;;;5.53;2.30;;;;;;;-148.88;100.00;-17125.47;5017441;28;20026;-83
2023/10/16 00:59:17;;;;;;;10.02;2.72;;;;;;;-148.88;100.00;-17125.47;5017058;28;20030;-84
2023/10/16 01:01:46;;;;;;;5.25;2.42;;;;;;;-148.88;100.00;-17125.47;5017240;28;20030;-84
2023/10/16 01:04:13;;;;;;;5.68;2.13;;;;;;;-148.88;100.00;-17125.47;5017520;28;20465;-82
2023/10/16 01:06:41;;;;;;;7.97;2.60;;;;;;;-148.88;100.00;-17125.47;5016815;28;20139;-84
2023/10/16 01:09:08;;;;;;;5.68;2.67;;;;;;;-148.88;100.00;-17125.47;5018203;28;20026;-85
2023/10/16 01:11:37;;;;;;;7.03;2.13;;;;;;;-148.88;100.00;-17125.47;5015674;28;20351;-84
2023/10/16 01:14:03;;;;;;;4.65;2.30;;;;;;;-148.88;100.00;-17125.47;5016264;28;20054;-85
2023/10/16 01:16:29;;;;;;;6.13;2.50;;;;;;;-148.88;100.00;-17125.47;5014484;28;20561;-85
2023/10/16 01:18:58;;;;;;;5.05;2.22;;;;;;;-148.88;100.00;-17125.47;5014338;28;20080;-85
2023/10/16 01:21:23;;;;;;;7.80;2.88;;;;;;;-148.88;100.00;-17125.47;5015898;28;20018;-84
2023/10/16 01:23:51;;;;;;;11.13;2.65;;;;;;;-148.88;100.00;-17125.47;5014891;28;20029;-84
2023/10/16 01:26:16;;;;;;;4.97;2.17;;;;;;;-148.88;100.00;-17125.47;5014379;28;20037;-84
2023/10/16 01:28:42;;;;;;;5.72;2.80;;;;;;;-148.88;100.00;-17125.47;5015727;28;20394;-84
2023/10/16 01:31:07;;;;;;;7.60;2.60;;;;;;;-148.88;100.00;-17125.47;5015663;28;20393;-86
2023/10/16 01:33:33;;;;;;;7.28;3.05;;;;;;;-148.88;100.00;-17125.47;5014129;28;20084;-84
2023/10/16 01:36:08;;;;;;;4.88;2.92;;;;;;;-148.88;100.00;-17125.47;5014316;28;20025;-85
2023/10/16 01:38:34;;;;;;;6.78;3.08;;;;;;;-148.88;100.00;-17125.47;5013914;28;20029;-85
2023/10/16 01:43:32;;;;;;;6.10;3.50;;;;;;;-148.88;100.00;-17125.47;5017017;28;20037;-84
2023/10/16 01:46:08;;;;;;;8.75;3.65;;;;;;;-148.88;100.00;-17125.47;5015276;28;20112;-85
2023/10/16 01:48:39;;;;;;;8.02;3.28;;;;;;;-148.88;100.00;-17125.47;5015479;28;20033;-85
2023/10/16 01:51:05;;;;;;;6.55;3.15;;;;;;;-148.88;100.00;-17125.47;5013054;28;20036;-85
2023/10/16 01:53:36;;;;;;;7.43;3.80;;;;;;;-148.88;100.00;-17125.47;5013862;28;20025;-85
2023/10/16 01:56:15;;;;;;;7.20;3.90;;;;;;;-148.88;100.00;-17125.47;5014019;28;20018;-84
2023/10/16 01:58:47;;;;;;;9.70;3.72;;;;;;;-148.88;100.00;-17125.47;5014737;28;20034;-85
2023/10/16 02:01:18;;;;;;;8.20;3.10;;;;;;;-148.88;100.00;-17125.47;5015827;28;20108;-85
2023/10/16 02:03:45;;;;;;;10.13;3.97;;;;;;;-148.88;100.00;-17125.47;5014201;28;20398;-84
2023/10/16 02:06:12;;;;;;;7.50;3.72;;;;;;;-148.88;100.00;-17125.47;5014394;28;20029;-84
2023/10/16 02:08:39;;;;;;;8.98;3.90;;;;;;;-148.88;100.00;-17125.47;5014453;28;20030;-84
2023/10/16 02:11:06;;;;;;;7.95;3.67;;;;;;;-148.88;100.00;-17125.47;5016594;28;20026;-84
2023/10/16 02:13:37;;;;;;;11.93;3.50;;;;;;;-148.88;100.00;-17125.47;5015492;28;20454;-84
2023/10/16 02:16:06;;;;;;;7.63;4.03;;;;;;;-148.88;100.00;-17125.47;5015935;28;20033;-85
2023/10/16 02:18:37;;;;;;;7.68;3.72;;;;;;;-148.88;100.00;-17125.47;5014436;28;20034;-85
2023/10/16 02:21:05;;;;;;;8.05;4.03;;;;;;;-148.88;100.00;-17125.47;5016352;28;20151;-85
2023/10/16 02:23:31;;;;;;;10.25;4.20;;;;;;;-148.88;100.00;-17125.47;5013859;28;20053;-85
2023/10/16 02:25:59;;;;;;;8.50;3.88;;;;;;;-148.88;100.00;-17125.47;5014208;28;20026;-85
2023/10/16 02:28:25;;;;;;;8.23;4.03;;;;;;;-148.88;100.00;-17125.47;5014141;28;20474;-86
2023/10/16 02:30:51;;;;;;;10.25;4.35;;;;;;;-148.88;100.00;-17125.47;5014079;28;20076;-85
2023/10/16 02:33:28;;;;;;;10.38;4.60;;;;;;;-148.88;100.00;-17125.47;5015456;28;20398;-84
2023/10/16 02:35:57;;;;;;;16.00;4.20;;;;;;;-148.88;100.00;-17125.47;5013700;28;20041;-85
2023/10/16 02:38:27;;;;;;;9.63;4.72;;;;;;;-148.88;100.00;-17125.47;5013897;28;20037;-85
2023/10/16 02:40:54;;;;;;;11.38;4.22;;;;;;;-148.88;100.00;-17125.47;5014092;28;20030;-86
2023/10/16 02:43:23;;;;;;;12.30;3.85;;;;;;;-148.88;100.00;-17125.47;5015104;28;20022;-85
2023/10/16 02:45:52;;;;;;;10.60;5.00;;;;;;;-148.88;100.00;-17125.47;5014737;28;20025;-84
2023/10/16 02:48:20;;;;;;;8.77;4.45;;;;;;;-148.88;100.00;-17125.47;5013447;28;20037;-85
2023/10/16 02:50:59;;;;;;;8.77;3.92;;;;;;;-148.88;100.00;-17125.47;5013678;28;20061;-85
2023/10/16 02:53:27;;;;;;;10.70;4.68;;;;;;;-148.88;100.00;-17125.47;5013900;28;20445;-84
2023/10/16 02:55:58;;;;;;;8.82;4.00;;;;;;;-148.88;100.00;-17125.47;5013421;28;20022;-84
2023/10/16 02:58:28;;;;;;;11.07;3.88;;;;;;;-148.88;100.00;-17125.47;5013209;28;20034;-85
2023/10/16 03:00:59;;;;;;;7.53;4.60;;;;;;;-148.88;100.00;-17125.47;5013773;28;20379;-85
2023/10/16 03:03:26;;;;;;;10.25;3.50;;;;;;;-148.88;100.00;-17125.47;5014091;28;20026;-85
2023/10/16 03:05:55;;;;;;;8.52;4.65;;;;;;;-148.88;100.00;-17125.47;5014145;28;20033;-85
2023/10/16 03:08:30;;;;;;;10.38;3.80;;;;;;;-148.88;100.00;-17125.47;5013567;28;20475;-85
2023/10/16 03:10:59;;;;;;;10.82;4.68;;;;;;;-148.88;100.00;-17125.47;5013882;28;20025;-84
2023/10/16 03:13:25;;;;;;;10.20;4.63;;;;;;;-148.88;100.00;-17125.47;5012822;28;20026;-85
2023/10/16 03:15:59;;;;;;;8.98;3.75;;;;;;;-148.88;100.00;-17125.47;5014391;28;20020;-84
2023/10/16 03:18:25;;;;;;;7.57;4.05;;;;;;;-148.88;100.00;-17125.47;5013242;28;20117;-83
2023/10/16 03:23:46;;;;;;;10.48;4.20;;;;;;;-148.88;100.00;-17125.47;5016093;28;20026;-84
2023/10/16 03:28:45;;;;;;;13.35;3.95;;;;;;;-148.88;100.00;-17125.47;5014735;28;20129;-86
2023/10/16 03:31:11;;;;;;;13.38;4.57;;;;;;;-148.88;100.00;-17125.47;5014969;28;20033;-84
2023/10/16 03:34:05;;;;;;;6.80;3.40;;;;;;;-148.88;100.00;-17125.47;5015105;28;20021;-84
2023/10/16 03:36:31;;;;;;;9.90;4.20;;;;;;;-148.88;100.00;-17125.47;5013528;28;20038;-85
2023/10/16 03:38:57;;;;;;;8.20;4.15;;;;;;;-148.88;100.00;-17125.47;5015512;28;20113;-85
2023/10/16 03:41:32;;;;;;;11.35;4.13;;;;;;;-148.88;100.00;-17125.47;5014861;28;20087;-85
2023/10/16 03:44:14;;;;;;;7.82;4.07;;;;;;;-148.88;100.00;-17125.47;5013651;28;20026;-85
2023/10/16 03:46:41;;;;;;;12.13;3.70;;;;;;;-148.88;100.00;-17125.47;5013243;28;20030;-84
2023/10/16 03:49:08;;;;;;;9.82;4.47;;;;;;;-148.88;100.00;-17125.47;5013093;28;20030;-83
2023/10/16 03:51:34;;;;;;;8.73;3.97;;;;;;;-148.88;100.00;-17125.47;5012529;28;20029;-84
2023/10/16 03:54:02;;;;;;;8.93;3.35;;;;;;;-148.88;100.00;-17125.47;5013768;28;20026;-83
2023/10/16 03:56:30;;;;;;;8.32;4.63;;;;;;;-148.88;100.00;-17125.47;5016877;28;20096;-83
2023/10/16 03:58:57;;;;;;;11.73;4.32;;;;;;;-148.88;100.00;-17125.47;5016330;28;20112;-83
2023/10/16 04:01:29;;;;;;;9.52;3.80;;;;;;;-148.88;100.00;-17125.47;5014768;28;20026;-83
2023/10/16 04:03:58;;;;;;;8.88;4.13;;;;;;;-148.88;100.00;-17125.47;5016851;28;20022;-84
2023/10/16 04:06:25;;;;;;;9.95;4.13;;;;;;;-148.88;100.00;-17125.47;5014372;28;20026;-84
2023/10/16 04:08:52;;;;;;;11.68;4.28;;;;;;;-148.88;100.00;-17125.47;5014145;28;20080;-84
2023/10/16 04:11:20;;;;;;;8.25;4.18;;;;;;;-148.88;100.00;-17125.47;5017711;28;20512;-84
2023/10/16 04:13:48;;;;;;;7.07;3.70;;;;;;;-148.88;100.00;-17125.47;5017432;28;20030;-84
2023/10/16 04:22:07;;;;;;;12.65;5.00;;;;;;;-148.88;100.00;-17125.47;5018923;28;20041;-83
2023/10/16 04:27:29;;;;;;;13.55;4.47;;;;;;;-148.88;100.00;-17125.47;5023576;28;20486;-84
2023/10/16 04:29:49;;;;;;;9.52;4.05;;;;;;;-148.88;100.00;-17125.47;5023486;28;20029;-84
2023/10/16 04:37:49;;;;;;;11.25;4.80;;;;;;;-148.88;100.00;-17125.47;5023768;28;20045;-84
2023/10/16 04:47:42;;;;;;;10.68;4.47;;;;;;;-148.88;100.00;-17125.47;5019507;28;20038;-83
2023/10/16 04:50:11;;;;;;;10.50;4.50;;;;;;;-148.88;100.00;-17125.47;5018662;28;20038;-84
2023/10/16 04:53:06;;;;;;;12.20;5.07;;;;;;;-148.88;100.00;-17125.47;5021387;28;20025;-84
2023/10/16 04:56:15;;;;;;;13.23;4.60;;;;;;;-148.88;100.00;-17125.47;5021432;28;20136;-84
2023/10/16 05:14:22;;;;;;;10.48;4.13;;;;;;;-148.88;100.00;-17125.47;5019892;28;20509;-85
2023/10/16 05:19:53;;;;;;;9.07;3.75;;;;;;;-148.88;100.00;-17125.47;4936590;29;20020;-84
2023/10/16 06:14:23;;;;;;;8.13;4.70;;;;;;;-148.88;100.00;-17125.47;5021708;28;19977;-89
2023/10/16 06:16:53;;;;;;;12.00;4.18;;;;;;;-148.88;100.00;-17125.47;5022820;28;20025;-89
2023/10/16 06:19:19;;;;;;;8.75;4.00;;;;;;;-148.88;100.00;-17125.47;5014527;28;20030;-87
2023/10/16 06:21:47;;;;;;;11.07;4.30;;;;;;;-148.88;100.00;-17125.47;5013577;28;20018;-86
2023/10/16 06:24:33;;;;;;;9.90;4.45;;;;;;;-148.88;100.00;-17125.47;5013524;28;20405;-87
2023/10/16 06:27:09;;;;;;;7.95;3.90;;;;;;;-148.88;100.00;-17125.47;5014018;28;20220;-87
2023/10/16 06:29:57;;;;;;;11.15;4.20;;;;;;;-148.88;100.00;-17125.47;5013508;28;20029;-88
2023/10/16 06:32:35;;;;;;;14.68;4.18;;;;;;;-148.88;100.00;-17125.47;5013798;28;20022;-88
2023/10/16 06:35:01;;;;;;;8.05;4.60;;;;;;;-148.88;100.00;-17125.47;5013658;28;20060;-86
2023/10/16 06:37:31;;;;;;;10.23;4.93;;;;;;;-148.88;100.00;-17125.47;5012856;28;20033;-85
2023/10/16 06:40:15;;;;;;;8.55;4.78;;;;;;;-148.88;100.00;-17125.47;5014250;28;20030;-88
2023/10/16 06:42:45;;;;;;;9.70;3.95;;;;;;;-148.88;100.00;-17125.47;5013413;28;20510;-88
2023/10/16 06:45:19;;;;;;;12.30;4.57;;;;;;;-148.88;100.00;-17125.47;5014913;28;20100;-88
2023/10/16 06:47:48;;;;;;;9.18;4.10;;;;;;;-148.88;100.00;-17125.47;5015344;28;20050;-88
2023/10/16 06:52:52;;;;;;;8.88;5.10;;;;;;;-148.88;100.00;-17125.47;5014191;28;20029;-87
2023/10/16 06:55:18;;;;;;;8.50;4.35;;;;;;;-148.88;100.00;-17125.47;5014403;28;20576;-87
2023/10/16 06:57:44;;;;;;;11.30;5.10;;;;;;;-148.88;100.00;-17125.47;5013451;28;20021;-87
2023/10/16 07:00:22;;;;;;;12.45;4.80;;;;;;;-148.88;100.00;-17125.47;5030101;23;20053;-83
2023/10/16 07:02:54;;;;;;;8.55;4.55;;;;;;;-148.88;100.00;-17125.47;5014282;28;20425;-83
2023/10/16 07:05:43;;;;;;;11.05;4.85;;;;;;;-148.88;100.00;-17125.47;5016408;28;20041;-83
2023/10/16 07:08:16;;;;;;;8.88;4.50;;;;;;;-148.88;100.00;-17125.47;5014281;28;20037;-83
2023/10/16 07:10:48;;;;;;;9.77;4.60;;;;;;;-148.88;100.00;-17125.47;4997965;28;20026;-82
2023/10/16 07:13:14;;;;;;;7.55;4.40;;;;;;;-148.88;100.00;-17125.47;4994937;28;20458;-83
2023/10/16 07:15:40;;;;;;;9.07;4.22;;;;;;;-148.88;100.00;-17125.47;4995221;28;20023;-84
2023/10/16 07:18:05;;;;;;;10.60;4.70;;;;;;;-148.88;100.00;-17125.47;4996163;28;20049;-82
2023/10/16 07:20:52;;;;;;;10.13;4.75;;;;;;;-148.88;100.00;-17125.47;4997095;28;20053;-81
2023/10/16 07:23:20;;;;;;;10.57;4.72;;;;;;;-148.88;100.00;-17125.47;4997971;28;20026;-85
2023/10/16 07:25:56;;;;;;;11.07;4.40;;;;;;;-148.88;100.00;-17125.47;4997383;28;20061;-84
2023/10/16 07:28:22;;;;;;;11.73;4.22;;;;;;;-148.88;100.00;-17125.47;4996481;28;20084;-83
2023/10/16 07:30:49;;;;;;;10.30;4.63;;;;;;;-148.88;100.00;-17125.47;4993055;28;20395;-83
2023/10/16 07:33:15;;;;;;;10.52;4.68;;;;;;;-148.88;100.00;-17125.47;4994851;28;20034;-82
2023/10/16 07:35:44;;;;;;;9.40;4.40;;;;;;;-148.88;100.00;-17125.47;4994293;28;20034;-83
2023/10/16 07:38:19;;;;;;;10.07;5.10;;;;;;;-148.88;100.00;-17125.47;4993724;28;20031;-83
2023/10/16 07:40:51;;;;;;;11.43;5.22;;;;;;;-148.88;100.00;-17125.47;4993831;28;20042;-83
2023/10/16 07:43:32;;;;;;;12.35;4.95;;;;;;;-148.88;100.00;-17125.47;4995627;28;20105;-83
2023/10/16 07:51:56;;;;;;;11.77;4.80;;;;;;;-148.88;100.00;-17125.47;5024192;28;20053;-84
2023/10/16 07:54:22;;;;;;;10.10;5.25;;;;;;;-148.88;100.00;-17125.47;5021625;28;20022;-84
2023/10/16 07:56:51;;;;;;;9.40;4.35;;;;;;;-148.88;100.00;-17125.47;5021510;28;20034;-85
2023/10/16 07:59:19;;;;;;;12.77;5.15;;;;;;;-148.88;100.00;-17125.47;5002594;28;20114;-84
2023/10/16 08:01:48;;;;;;;9.20;4.78;;;;;;;-148.88;100.00;-17125.47;5000633;28;20069;-85
2023/10/16 08:06:52;;;;;;;8.88;4.35;;;;;;;-148.88;100.00;-17125.47;5000427;28;20489;-83
2023/10/16 08:11:57;;;;;;;16.70;4.97;;;;;;;-148.88;100.00;-17125.47;4998521;28;20377;-85
2023/10/16 08:14:28;;;;;;;10.85;4.88;;;;;;;-148.88;100.00;-17125.47;5000634;28;20033;-84
2023/10/16 08:19:52;;;;;;;15.40;9.65;;;;;;;-148.88;100.00;-17125.47;4989133;28;20046;-85
2023/10/16 08:22:17;;;;;;;13.80;5.85;;;;;;;-148.88;100.00;-17125.47;5001528;28;20092;-85
2023/10/16 08:25:00;;;;;;;14.32;10.05;;;;;;;-148.88;100.00;-17125.47;5001595;28;20031;-84
2023/10/16 08:30:54;;;;;;;10.77;5.25;;;;;;;-148.88;100.00;-17125.47;5002964;28;20034;-84
2023/10/16 08:32:54;;;;;;;12.98;9.18;;;;;;;-148.88;100.00;-17125.47;4994157;28;20034;-85
2023/10/16 08:35:20;;;;;;;10.45;5.20;;;;;;;-148.88;100.00;-17125.47;5001947;28;20076;-85
2023/10/16 08:37:58;;;;;;;12.50;5.88;;;;;;;-148.88;100.00;-17125.47;5004489;28;20138;-85
2023/10/16 08:40:32;;;;;;;11.38;5.75;;;;;;;-148.88;100.00;-17125.47;5001761;28;20398;-85
2023/10/16 08:43:00;;;;;;;11.13;5.85;;;;;;;-148.88;100.00;-17125.47;5001005;28;20117;-84
2023/10/16 08:45:28;;;;;;;12.55;6.43;;;;;;;-148.88;100.00;-17125.47;4996731;28;20030;-84
2023/10/16 08:47:55;;;;;;;9.40;5.18;;;;;;;-148.88;100.00;-17125.47;4996922;28;20489;-84
2023/10/16 08:50:24;;;;;;;10.63;5.38;;;;;;;-148.88;100.00;-17125.47;4998933;28;20154;-85
2023/10/16 08:52:58;;;;;;;8.00;4.97;;;;;;;-148.88;100.00;-17125.47;4998918;28;20022;-84
2023/10/16 08:55:26;;;;;;;17.17;5.85;;;;;;;-148.88;100.00;-17125.47;4996153;28;20022;-84
2023/10/16 08:57:52;;;;;;;11.02;5.13;;;;;;;-148.88;100.00;-17125.47;4996831;28;20498;-84
2023/10/16 09:00:22;;;;;;;10.80;4.90;;;;;;;-148.88;100.00;-17125.47;4994752;28;20084;-85
2023/10/16 09:03:00;;;;;;;15.25;5.68;;;;;;;-148.88;100.00;-17125.47;4996957;28;20110;-85
2023/10/16 09:05:26;;;;;;;12.00;5.25;;;;;;;-148.88;100.00;-17125.47;4996767;28;20022;-85
2023/10/16 09:07:51;;;;;;;11.48;6.28;;;;;;;-148.88;100.00;-17125.47;4995361;28;20004;-86
2023/10/16 09:10:21;;;;;;;12.60;9.38;;;;;;;-148.88;100.00;-17125.47;4995243;28;20046;-85
2023/10/16 09:13:13;;;;;;;12.90;9.10;;;;;;;-148.88;100.00;-17125.47;4997224;28;20018;-86
2023/10/16 09:15:48;;;;;;;10.93;5.10;;;;;;;-148.88;100.00;-17125.47;4996950;28;20077;-86
2023/10/16 09:18:16;;;;;;;9.32;4.93;;;;;;;-148.88;100.00;-17125.47;4995779;28;20113;-85
2023/10/16 09:20:42;;;;;;;9.02;5.05;;;;;;;-148.88;100.00;-17125.47;4996484;28;20030;-84
2023/10/16 09:23:13;;;;;;;8.05;4.75;;;;;;;-148.88;100.00;-17125.47;4996541;28;20053;-83
2023/10/16 09:25:46;;;;;;;9.80;4.85;;;;;;;-148.88;100.00;-17125.47;4995306;28;20062;-86
2023/10/16 09:28:18;;;;;;;10.70;8.70;;;;;;;-148.88;100.00;-17125.47;4996949;28;20049;-86
2023/10/16 09:30:48;;;;;;;11.32;4.45;;;;;;;-148.88;100.00;-17125.47;4995790;28;20049;-86
2023/10/16 09:33:15;;;;;;;8.30;4.57;;;;;;;-148.88;100.00;-17125.47;4996999;28;20026;-86
2023/10/16 09:35:44;;;;;;;12.60;5.45;;;;;;;-148.88;100.00;-17125.47;4997497;28;20031;-88
2023/10/16 09:38:18;;;;;;;9.00;4.30;;;;;;;-148.88;100.00;-17125.47;4998052;28;20383;-86
2023/10/16 09:40:58;;;;;;;8.80;4.28;;;;;;;-148.88;100.00;-17125.47;4997484;28;20029;-87
2023/10/16 09:43:26;;;;;;;10.02;7.40;;;;;;;-148.88;100.00;-17125.47;4997012;28;20026;-86
2023/10/16 09:46:21;;;;;;;10.18;6.60;;;;;;;-148.88;100.00;-17125.47;4995863;28;20125;-86
2023/10/16 09:48:39;;;;;;;10.48;7.10;;;;;;;-148.88;100.00;-17125.47;4997866;28;20041;-86
2023/10/16 09:51:12;;;;;;;7.82;6.22;;;;;;;-148.88;100.00;-17125.47;4995796;28;20039;-86
2023/10/16 09:53:38;;;;;;;9.37;7.20;;;;;;;-148.88;100.00;-17125.47;4996616;28;20100;-87
2023/10/16 09:56:09;;;;;;;8.13;3.97;;;;;;;-148.88;100.00;-17125.47;4996386;28;20421;-87
2023/10/16 09:58:37;;;;;;;10.10;4.00;;;;;;;-148.88;100.00;-17125.47;4994802;28;20085;-87
2023/10/16 10:01:09;;;;;;;9.88;7.45;;;;;;;-148.88;100.00;-17125.47;4996314;28;20026;-86
2023/10/16 10:03:36;;;;;;;9.50;6.93;;;;;;;-148.88;100.00;-17125.47;4996419;28;20077;-86
2023/10/16 10:06:20;;;;;;;10.65;6.10;;;;;;;-148.88;100.00;-17125.47;4995707;28;20038;-87
2023/10/16 10:11:38;;;;;;;7.85;3.55;;;;;;;-148.88;100.00;-17125.47;4996103;28;20117;-85
2023/10/16 10:14:49;;;;;;;8.80;6.25;;;;;;;-148.88;100.00;-17125.47;4995771;28;20068;-86
2023/10/16 10:17:01;;;;;;;8.77;5.85;;;;;;;-148.88;100.00;-17125.47;4993815;28;20030;-87
2023/10/16 10:19:36;;;;;;;8.30;3.90;;;;;;;-148.88;100.00;-17125.47;4996561;28;20052;-87
2023/10/16 10:22:16;;;;;;;6.40;3.30;;;;;;;-148.88;100.00;-17125.47;4996433;28;20022;-86
2023/10/16 10:25:06;;;;;;;9.93;5.63;;;;;;;-148.88;100.00;-17125.47;4995301;28;20057;-86
2023/10/16 10:27:41;;;;;;;9.93;4.55;;;;;;;-148.88;100.00;-17125.47;4995775;28;20026;-86
2023/10/16 10:30:17;;;;;;;10.35;6.63;;;;;;;-148.88;100.00;-17125.47;4999324;28;20027;-85
2023/10/16 10:33:03;;;;;;;7.85;5.75;;;;;;;-148.88;100.00;-17125.47;4995274;28;20516;-84
2023/10/16 10:35:29;;;;;;;6.38;5.25;;;;;;;-148.88;100.00;-17125.47;4995813;28;20041;-83
2023/10/16 10:38:17;;;;;;;7.15;5.28;;;;;;;-148.88;100.00;-17125.47;4994325;28;20444;-85
2023/10/16 10:41:12;;;;;;;9.68;5.63;;;;;;;-148.88;100.00;-17125.47;4996901;28;20022;-85
2023/10/16 10:44:03;;;;;;;7.55;4.50;;;;;;;-148.88;100.00;-17125.47;5070675;27;20855;-76
2023/10/16 10:46:34;;;;;;;5.13;4.32;;;;;;;-148.88;100.00;-17125.47;5069984;28;20576;-76
2023/10/16 10:49:01;;;;;;;5.55;4.28;;;;;;;-148.88;100.00;-17125.47;5069267;28;20102;-76
2023/10/16 10:51:30;;;;;;;6.38;3.95;;;;;;;-148.88;100.00;-17125.47;5070247;28;20078;-76
2023/10/16 10:53:58;;;;;;;5.65;4.32;;;;;;;-148.88;100.00;-17125.47;5069161;28;20021;-76
2023/10/16 10:56:51;;;;;;;4.88;3.63;;;;;;;-148.88;100.00;-17125.47;5069963;28;20025;-76
2023/10/16 10:59:40;;;;;;;6.67;3.23;;;;;;;-148.88;100.00;-17125.47;5069706;28;20035;-75
2023/10/16 11:02:20;;;;;;;5.80;3.72;;;;;;;-148.88;100.00;-17125.47;5069626;28;20433;-75
2023/10/16 11:04:53;;;;;;;5.95;4.00;;;;;;;-148.88;100.00;-17125.47;5069945;28;20024;-75
2023/10/16 11:07:28;;;;;;;5.35;3.42;;;;;;;-148.88;100.00;-17125.47;5069661;28;20024;-76
2023/10/16 11:09:57;;;;;;;8.55;3.17;;;;;;;-148.88;100.00;-17125.47;5068163;28;20055;-75
2023/10/16 11:12:26;;;;;;;6.07;2.45;;;;;;;-148.88;100.00;-17125.47;5068148;28;20035;-75
2023/10/16 11:14:56;;;;;;;4.82;2.65;;;;;;;-148.88;100.00;-17125.47;5069350;28;20020;-75
2023/10/16 11:17:40;;;;;;;4.95;2.30;;;;;;;-148.88;100.00;-17125.47;5068447;28;20083;-75
2023/10/16 11:22:45;;;;;;;4.63;2.35;;;;;;;-148.88;100.00;-17125.47;5069651;28;20464;-75
2023/10/16 11:25:14;;;;;;;5.68;2.97;;;;;;;-148.88;100.00;-17125.47;5069341;28;20058;-75
2023/10/16 11:27:42;;;;;;;6.90;3.25;;;;;;;-148.88;100.00;-17125.47;5067780;28;20479;-76
2023/10/16 11:30:18;;;;;;;6.60;3.30;;;;;;;-148.88;100.00;-17125.47;5068995;28;20028;-75
2023/10/16 11:32:46;;;;;;;6.68;3.85;;;;;;;-148.88;100.00;-17125.47;5069383;28;20024;-75
2023/10/16 11:35:16;;;;;;;10.43;3.70;;;;;;;-148.88;100.00;-17125.47;5068789;28;20403;-75
2023/10/16 11:37:43;;;;;;;6.15;3.90;;;;;;;-148.88;100.00;-17125.47;5067645;28;20021;-76
2023/10/16 11:40:18;;;;;;;5.43;3.55;;;;;;;-148.88;100.00;-17125.47;5068598;28;20067;-75
2023/10/16 11:42:48;;;;;;;9.15;3.92;;;;;;;-148.88;100.00;-17125.47;5068491;28;20082;-76
2023/10/16 11:45:20;;;;;;;5.70;3.58;;;;;;;-148.88;100.00;-17125.47;5068991;28;20020;-76
2023/10/16 11:48:03;;;;;;;9.23;3.83;;;;;;;-148.88;100.00;-17125.47;5068544;28;20052;-75
2023/10/16 11:50:38;;;;;;;6.93;3.87;;;;;;;-148.88;100.00;-17125.47;5068655;28;20032;-75
2023/10/16 11:53:07;;;;;;;8.13;3.92;;;;;;;-148.88;100.00;-17125.47;5067025;28;20017;-75
2023/10/16 11:55:37;;;;;;;6.53;3.25;;;;;;;-148.88;100.00;-17125.47;5055044;28;20442;-76
2023/10/16 11:58:11;;;;;;;6.45;3.75;;;;;;;-148.88;100.00;-17125.47;5055393;28;20103;-76
2023/10/16 12:00:42;;;;;;;8.65;4.68;;;;;;;-148.88;100.00;-17125.47;5055118;28;20283;-75
2023/10/16 12:03:14;;;;;;;6.22;4.10;;;;;;;-148.88;100.00;-17125.47;5055243;28;20045;-76
2023/10/16 12:05:45;;;;;;;7.03;3.90;;;;;;;-148.88;100.00;-17125.47;5055124;28;20025;-75
2023/10/16 12:08:10;;;;;;;6.30;3.90;;;;;;;-148.88;100.00;-17125.47;5055572;28;20032;-75
2023/10/16 12:10:36;;;;;;;7.15;4.10;;;;;;;-148.88;100.00;-17125.47;5055250;28;20400;-76
2023/10/16 12:13:03;;;;;;;7.88;3.85;;;;;;;-148.88;100.00;-17125.47;5053641;28;20471;-76
2023/10/16 12:15:29;;;;;;;6.55;4.00;;;;;;;-148.88;100.00;-17125.47;5054796;28;20091;-76
2023/10/16 12:17:55;;;;;;;6.55;3.72;;;;;;;-148.88;100.00;-17125.47;5054819;28;20029;-76
2023/10/16 12:20:21;;;;;;;7.85;3.75;;;;;;;-148.88;100.00;-17125.47;5054786;28;20021;-75
2023/10/16 12:22:49;;;;;;;6.38;3.60;;;;;;;-148.88;100.00;-17125.47;5054694;28;20214;-76
2023/10/16 12:25:15;;;;;;;7.68;3.75;;;;;;;-148.88;100.00;-17125.47;5055179;28;20021;-76
2023/10/16 12:27:40;;;;;;;7.68;3.60;;;;;;;-148.88;100.00;-17125.47;5054617;28;20036;-75
2023/10/16 12:30:12;;;;;;;8.15;3.53;;;;;;;-148.88;100.00;-17125.47;5054685;28;20017;-76
2023/10/16 12:32:38;;;;;;;6.75;3.72;;;;;;;-148.88;100.00;-17125.47;5053122;28;20423;-76
2023/10/16 12:35:08;;;;;;;5.93;3.30;;;;;;;-148.88;100.00;-17125.47;5053085;28;20496;-76
2023/10/16 12:37:33;;;;;;;5.13;3.47;;;;;;;-148.88;100.00;-17125.47;5054478;28;20021;-76
2023/10/16 12:39:59;;;;;;;7.05;3.72;;;;;;;-148.88;100.00;-17125.47;5053112;28;20518;-76
2023/10/16 12:42:24;;;;;;;6.68;3.33;;;;;;;-148.88;100.00;-17125.47;5054351;28;20126;-76
2023/10/16 12:44:50;;;;;;;4.63;2.70;;;;;;;-148.88;100.00;-17125.47;5052782;28;20040;-76
2023/10/16 12:47:16;;;;;;;5.68;2.97;;;;;;;-148.88;100.00;-17125.47;5052922;28;20024;-76
2023/10/16 12:49:42;;;;;;;5.35;2.42;;;;;;;-148.88;100.00;-17125.47;5054247;28;20025;-75
2023/10/16 12:52:10;;;;;;;6.65;2.40;;;;;;;-148.88;100.00;-17125.47;5054454;28;20044;-76
2023/10/16 12:54:37;;;;;;;6.15;2.53;;;;;;;-148.88;100.00;-17125.47;5053203;28;20028;-76
2023/10/16 12:57:02;;;;;;;5.43;2.60;;;;;;;-148.88;100.00;-17125.47;5053032;28;20025;-76
2023/10/16 12:59:28;;;;;;;5.15;2.30;;;;;;;-148.88;100.00;-17125.47;5054408;28;20028;-76
2023/10/16 13:01:53;;;;;;;6.85;2.15;;;;;;;-148.88;100.00;-17125.47;5054184;28;20025;-76
2023/10/16 13:04:19;;;;;;;7.03;2.40;;;;;;;-148.88;100.00;-17125.47;5054401;28;20033;-76
2023/10/16 13:06:48;;;;;;;5.30;2.88;;;;;;;-148.88;100.00;-17125.47;5053080;28;20480;-77
2023/10/16 13:09:15;;;;;;;7.97;2.70;;;;;;;-148.88;100.00;-17125.47;5055302;28;20021;-77
2023/10/16 13:11:41;;;;;;;4.43;2.80;;;;;;;-148.88;100.00;-17125.47;5054386;28;20021;-76
2023/10/16 13:14:07;;;;;;;7.25;3.25;;;;;;;-148.88;100.00;-17125.47;5054137;28;20184;-76
2023/10/16 13:16:33;;;;;;;5.95;3.08;;;;;;;-148.88;100.00;-17125.47;5054951;28;20493;-76
2023/10/16 13:18:59;;;;;;;5.40;2.85;;;;;;;-148.88;100.00;-17125.47;5054750;28;20024;-75
2023/10/16 13:21:34;;;;;;;7.38;3.45;;;;;;;-148.88;100.00;-17125.47;5054574;28;20539;-76